Time;durP1;ratioP1;P1;durP2;ratioP2;P2;SDS_P1;SDS_P2;PMS_P1;PMS_P2;Temp;Humidity;BMP_temperature;BMP_pressure;BME280_temperature;BME280_humidity;BME280_pressure;Samples;Min_cycle;Max_cycle;Signal;HPM_P1;HPM_P2
2021/10/31 00:01:36;;;;;;;55.53;31.87;;;8.80;99.90;;;;;;5122689;28;20567;-81
2021/10/31 00:04:01;;;;;;;37.17;21.73;;;8.80;99.90;;;;;;5123867;28;20678;-82
2021/10/31 00:06:27;;;;;;;77.00;42.20;;;8.80;99.90;;;;;;5125138;28;20243;-81
2021/10/31 00:08:52;;;;;;;69.83;40.27;;;8.80;99.90;;;;;;5124278;28;20231;-81
2021/10/31 00:11:19;;;;;;;51.37;28.67;;;8.80;99.90;;;;;;5125105;28;20214;-81
2021/10/31 00:13:45;;;;;;;39.90;22.27;;;8.80;99.90;;;;;;5126524;28;20272;-81
2021/10/31 00:16:12;;;;;;;15.20;9.40;;;8.80;99.90;;;;;;5126269;28;20623;-81
2021/10/31 00:18:37;;;;;;;46.97;28.20;;;8.80;99.90;;;;;;5122350;28;20627;-81
2021/10/31 00:21:03;;;;;;;23.20;12.87;;;8.90;99.90;;;;;;5122021;28;20243;-82
2021/10/31 00:23:29;;;;;;;43.40;29.40;;;8.80;99.90;;;;;;5123008;28;20209;-81
2021/10/31 00:25:55;;;;;;;12.10;8.53;;;8.90;99.90;;;;;;5123756;28;20228;-81
2021/10/31 00:28:21;;;;;;;14.20;10.57;;;8.80;99.90;;;;;;5123234;28;20182;-81
2021/10/31 00:30:46;;;;;;;12.77;9.67;;;8.80;99.90;;;;;;5122411;28;20186;-81
2021/10/31 00:33:12;;;;;;;11.90;8.73;;;8.80;99.90;;;;;;5122228;28;20187;-81
2021/10/31 00:35:38;;;;;;;9.20;6.63;;;8.80;99.90;;;;;;5122243;28;20576;-81
2021/10/31 00:38:04;;;;;;;9.03;6.93;;;8.70;99.90;;;;;;5121846;28;20227;-81
2021/10/31 00:40:31;;;;;;;9.00;6.40;;;8.70;99.90;;;;;;5122315;28;20268;-81
2021/10/31 00:42:57;;;;;;;9.40;6.30;;;8.60;99.90;;;;;;5121516;28;20215;-81
2021/10/31 00:45:23;;;;;;;9.33;6.07;;;8.60;99.90;;;;;;5121837;28;20527;-81
2021/10/31 00:47:49;;;;;;;8.67;6.00;;;8.60;99.90;;;;;;5123218;28;20203;-81
2021/10/31 00:50:18;;;;;;;8.10;5.70;;;8.50;99.90;;;;;;5122179;28;20183;-81
2021/10/31 00:52:43;;;;;;;6.43;5.80;;;8.50;99.90;;;;;;5122978;28;20210;-81
2021/10/31 00:55:09;;;;;;;7.60;5.80;;;8.50;99.90;;;;;;5122224;28;20178;-81
2021/10/31 00:57:36;;;;;;;8.27;5.33;;;8.50;99.90;;;;;;5121952;28;20173;-81
2021/10/31 01:00:05;;;;;;;7.13;5.30;;;8.50;99.90;;;;;;5122744;28;20198;-81
2021/10/31 01:02:31;;;;;;;7.20;5.57;;;8.50;99.90;;;;;;5123328;28;20659;-81
2021/10/31 01:05:00;;;;;;;7.93;5.20;;;8.40;99.90;;;;;;5121554;28;20211;-81
2021/10/31 01:08:04;;;;;;;7.17;4.77;;;8.30;99.90;;;;;;5123064;28;20181;-81
2021/10/31 01:10:39;;;;;;;8.07;5.93;;;8.30;99.90;;;;;;5124379;28;20159;-81
2021/10/31 01:13:33;;;;;;;7.00;5.03;;;8.10;99.90;;;;;;5124219;28;20280;-81
2021/10/31 01:16:36;;;;;;;9.00;5.70;;;8.10;99.90;;;;;;5121478;28;20180;-81
2021/10/31 01:19:25;;;;;;;8.17;5.30;;;8.00;99.90;;;;;;5120990;28;20202;-81
2021/10/31 01:21:57;;;;;;;9.63;6.33;;;7.90;99.90;;;;;;5122426;28;20199;-81
2021/10/31 01:24:41;;;;;;;8.70;5.70;;;7.90;99.90;;;;;;5120550;28;20187;-81
2021/10/31 01:27:17;;;;;;;9.40;5.27;;;7.80;99.90;;;;;;5123009;28;20182;-80
2021/10/31 01:30:03;;;;;;;6.63;5.20;;;7.80;99.90;;;;;;5123392;28;20637;-81
2021/10/31 01:32:48;;;;;;;8.37;5.70;;;7.70;99.90;;;;;;5120935;28;20220;-81
2021/10/31 01:35:28;;;;;;;6.67;5.33;;;7.70;99.90;;;;;;5120932;28;20172;-81
2021/10/31 01:37:54;;;;;;;8.13;5.03;;;7.60;99.90;;;;;;5122474;28;20161;-81
2021/10/31 01:40:47;;;;;;;7.77;5.60;;;7.60;99.90;;;;;;5122435;28;20231;-81
2021/10/31 01:43:38;;;;;;;7.23;5.60;;;7.60;99.90;;;;;;5122620;28;21015;-81
2021/10/31 01:46:20;;;;;;;7.37;5.33;;;7.70;99.90;;;;;;5121713;28;20173;-81
2021/10/31 01:48:59;;;;;;;8.57;5.53;;;7.60;99.90;;;;;;5122707;28;20175;-81
2021/10/31 01:51:36;;;;;;;7.83;5.67;;;7.60;99.90;;;;;;5130055;28;20220;-80
2021/10/31 01:54:05;;;;;;;7.20;5.30;;;7.60;99.90;;;;;;5135148;28;20165;-81
2021/10/31 01:56:35;;;;;;;7.33;5.80;;;7.60;99.90;;;;;;5134969;28;20178;-80
2021/10/31 01:59:22;;;;;;;6.47;5.20;;;7.70;99.90;;;;;;5128779;28;20171;-81
2021/10/31 02:01:49;;;;;;;10.93;5.67;;;7.70;99.90;;;;;;5122071;28;20202;-81
2021/10/31 02:04:18;;;;;;;6.40;4.90;;;7.60;99.90;;;;;;5121894;28;20257;-81
2021/10/31 02:06:48;;;;;;;10.30;7.70;;;7.60;99.90;;;;;;5120339;28;20192;-81
2021/10/31 02:09:17;;;;;;;9.17;6.77;;;7.50;99.90;;;;;;5121854;28;20176;-81
2021/10/31 02:11:46;;;;;;;8.37;6.50;;;7.50;99.90;;;;;;5121671;28;20290;-82
2021/10/31 02:14:13;;;;;;;9.93;6.93;;;7.50;99.90;;;;;;5122003;28;20173;-82
2021/10/31 02:16:40;;;;;;;8.57;5.97;;;7.40;99.90;;;;;;5121618;28;20183;-81
2021/10/31 02:19:13;;;;;;;7.50;6.43;;;7.40;99.90;;;;;;5121813;28;20222;-81
2021/10/31 02:21:40;;;;;;;8.40;5.67;;;7.40;99.90;;;;;;5121271;28;20665;-81
2021/10/31 02:24:08;;;;;;;9.17;5.50;;;7.30;99.90;;;;;;5119925;28;20216;-81
2021/10/31 02:26:36;;;;;;;7.83;5.50;;;7.30;99.90;;;;;;5120931;28;20647;-81
2021/10/31 02:29:07;;;;;;;7.10;5.20;;;7.30;99.90;;;;;;5120402;28;20191;-81
2021/10/31 02:31:35;;;;;;;8.87;5.90;;;7.30;99.90;;;;;;5122497;28;20208;-81
2021/10/31 02:34:01;;;;;;;8.47;5.27;;;7.20;99.90;;;;;;5121181;28;20199;-81
2021/10/31 02:36:27;;;;;;;7.50;5.37;;;7.30;99.90;;;;;;5124085;28;20172;-81
2021/10/31 02:38:53;;;;;;;8.17;6.00;;;7.30;99.90;;;;;;5126273;28;20179;-81
2021/10/31 02:41:18;;;;;;;8.00;6.23;;;7.30;99.90;;;;;;5123863;28;20203;-81
2021/10/31 02:43:44;;;;;;;8.20;5.50;;;7.30;99.90;;;;;;5121000;28;20254;-81
2021/10/31 02:46:10;;;;;;;9.90;5.80;;;7.30;99.90;;;;;;5120876;28;20226;-81
2021/10/31 02:48:38;;;;;;;6.47;5.20;;;7.30;99.90;;;;;;5121952;28;20214;-81
2021/10/31 02:51:22;;;;;;;8.03;5.63;;;7.30;99.90;;;;;;5121062;28;20230;-81
2021/10/31 02:53:57;;;;;;;7.53;4.83;;;7.30;99.90;;;;;;5119665;28;20175;-81
2021/10/31 02:56:42;;;;;;;7.30;5.10;;;7.40;99.90;;;;;;5119836;28;20174;-81
2021/10/31 02:59:42;;;;;;;5.53;4.80;;;7.40;99.90;;;;;;5121378;28;20166;-81
2021/10/31 03:02:09;;;;;;;6.50;4.67;;;7.30;99.90;;;;;;5080692;28;20240;-81
2021/10/31 03:04:37;;;;;;;6.33;5.03;;;7.30;99.90;;;;;;5119205;28;20229;-81
2021/10/31 03:07:03;;;;;;;8.67;4.83;;;7.30;99.90;;;;;;5121393;28;20178;-81
2021/10/31 03:09:29;;;;;;;8.23;5.70;;;7.30;99.90;;;;;;5119787;28;20200;-81
2021/10/31 03:12:02;;;;;;;6.27;4.90;;;7.30;99.90;;;;;;5119714;28;20224;-81
2021/10/31 03:14:28;;;;;;;7.10;4.63;;;7.20;99.90;;;;;;5119971;28;20185;-81
2021/10/31 03:16:54;;;;;;;5.73;4.87;;;7.20;99.90;;;;;;5119952;28;20545;-81
2021/10/31 03:19:20;;;;;;;8.77;4.60;;;7.20;99.90;;;;;;5121239;28;20181;-81
2021/10/31 03:21:45;;;;;;;5.60;5.00;;;7.20;99.90;;;;;;5121576;28;20202;-81
2021/10/31 03:24:11;;;;;;;9.33;5.03;;;7.20;99.90;;;;;;5120901;28;20210;-81
2021/10/31 03:26:37;;;;;;;7.07;4.83;;;7.20;99.90;;;;;;5119313;28;20188;-81
2021/10/31 03:29:02;;;;;;;6.33;4.67;;;7.10;99.90;;;;;;5120901;28;20185;-81
2021/10/31 03:31:29;;;;;;;6.13;4.70;;;7.10;99.90;;;;;;5119989;28;20726;-81
2021/10/31 03:33:54;;;;;;;5.60;4.17;;;7.10;99.90;;;;;;5119904;28;20223;-81
2021/10/31 03:36:20;;;;;;;5.63;4.47;;;7.10;99.90;;;;;;5121145;28;20170;-81
2021/10/31 03:38:46;;;;;;;6.07;4.53;;;7.10;99.90;;;;;;5121641;28;20161;-81
2021/10/31 03:41:12;;;;;;;5.87;4.40;;;7.10;99.90;;;;;;5121566;28;20188;-81
2021/10/31 03:43:37;;;;;;;6.93;4.50;;;7.10;99.90;;;;;;5120729;28;20165;-80
2021/10/31 03:46:03;;;;;;;5.63;4.43;;;7.10;99.90;;;;;;5123237;28;20218;-81
2021/10/31 03:48:29;;;;;;;5.63;3.90;;;7.10;99.90;;;;;;5124035;28;20176;-81
2021/10/31 03:50:54;;;;;;;6.03;4.33;;;7.10;99.90;;;;;;5123899;28;20179;-81
2021/10/31 03:53:20;;;;;;;9.23;4.00;;;7.00;99.90;;;;;;5125622;28;20175;-81
2021/10/31 03:55:46;;;;;;;9.07;3.10;;;7.00;99.90;;;;;;5123927;28;20657;-81
2021/10/31 03:58:11;;;;;;;5.73;4.07;;;6.90;99.90;;;;;;5132521;28;20171;-80
2021/10/31 04:00:37;;;;;;;4.23;3.60;;;6.90;99.90;;;;;;5138113;28;20176;-80
2021/10/31 04:03:04;;;;;;;5.87;3.67;;;6.90;99.90;;;;;;5137510;28;20243;-80
2021/10/31 04:05:29;;;;;;;6.67;3.73;;;6.90;99.90;;;;;;5124968;28;20185;-81
2021/10/31 04:07:55;;;;;;;6.30;3.70;;;6.90;99.90;;;;;;5124992;28;20178;-82
2021/10/31 04:10:21;;;;;;;5.20;3.80;;;6.90;99.90;;;;;;5124261;28;20177;-81
2021/10/31 04:12:50;;;;;;;5.20;3.40;;;6.90;99.90;;;;;;5124133;28;20208;-81
2021/10/31 04:15:17;;;;;;;6.00;4.13;;;6.90;99.90;;;;;;5122329;28;20210;-82
2021/10/31 04:17:42;;;;;;;5.20;3.33;;;6.90;99.90;;;;;;5123602;28;20176;-81
2021/10/31 04:20:09;;;;;;;8.50;3.97;;;6.80;99.90;;;;;;5123071;28;20187;-81
2021/10/31 04:22:35;;;;;;;3.77;3.37;;;6.70;99.90;;;;;;5123259;28;20270;-81
2021/10/31 04:25:01;;;;;;;5.30;3.23;;;6.70;99.90;;;;;;5124335;28;20215;-81
2021/10/31 04:27:27;;;;;;;4.37;3.60;;;6.60;99.90;;;;;;5123564;28;20176;-81
2021/10/31 04:29:53;;;;;;;6.07;3.60;;;6.60;99.90;;;;;;5134693;28;20207;-80
2021/10/31 04:32:19;;;;;;;5.47;3.50;;;6.70;99.90;;;;;;5137966;28;20208;-80
2021/10/31 04:34:45;;;;;;;4.40;3.80;;;6.60;99.90;;;;;;5137696;28;20172;-80
2021/10/31 04:37:11;;;;;;;4.27;3.23;;;6.60;99.90;;;;;;5137629;28;20223;-80
2021/10/31 04:39:36;;;;;;;5.47;3.57;;;6.50;99.90;;;;;;5134979;28;20267;-81
2021/10/31 04:42:05;;;;;;;5.40;3.60;;;6.40;99.90;;;;;;5124639;28;20215;-81
2021/10/31 04:44:33;;;;;;;3.90;3.20;;;6.40;99.90;;;;;;5124332;28;20176;-82
2021/10/31 04:46:59;;;;;;;4.87;3.17;;;6.30;99.90;;;;;;5124377;28;20180;-81
2021/10/31 04:49:25;;;;;;;3.70;3.30;;;6.40;99.90;;;;;;5124563;28;20226;-80
2021/10/31 04:51:51;;;;;;;3.77;3.20;;;6.30;99.90;;;;;;5123881;28;20205;-81
2021/10/31 04:54:17;;;;;;;4.20;2.80;;;6.30;99.90;;;;;;5125460;28;20176;-80
2021/10/31 04:56:43;;;;;;;3.43;2.90;;;6.30;99.90;;;;;;5133888;28;20156;-79
2021/10/31 04:59:08;;;;;;;3.93;3.30;;;6.20;99.90;;;;;;5134254;28;20190;-80
2021/10/31 05:01:34;;;;;;;6.60;3.30;;;6.30;99.90;;;;;;5124779;28;20307;-82
2021/10/31 05:04:00;;;;;;;3.30;3.00;;;6.30;99.90;;;;;;5125962;28;20187;-82
2021/10/31 05:06:25;;;;;;;4.13;3.20;;;6.30;99.90;;;;;;5126445;28;20248;-81
2021/10/31 05:08:51;;;;;;;5.50;3.63;;;6.30;99.90;;;;;;5120904;28;20262;-81
2021/10/31 05:11:17;;;;;;;4.37;3.20;;;6.30;99.90;;;;;;5122288;28;20575;-81
2021/10/31 05:13:42;;;;;;;5.30;3.27;;;6.30;99.90;;;;;;5122300;28;20179;-81
2021/10/31 05:16:08;;;;;;;4.13;3.30;;;6.30;99.90;;;;;;5121357;28;20182;-81
2021/10/31 05:18:35;;;;;;;3.50;3.20;;;6.20;99.90;;;;;;5122229;28;20208;-81
2021/10/31 05:21:00;;;;;;;4.20;3.23;;;6.30;99.90;;;;;;5121542;28;20198;-81
2021/10/31 05:23:27;;;;;;;4.00;3.27;;;6.30;99.90;;;;;;5121359;28;20600;-81
2021/10/31 05:25:53;;;;;;;9.73;4.43;;;6.30;99.90;;;;;;5122150;28;20176;-81
2021/10/31 05:28:19;;;;;;;3.43;3.07;;;6.30;99.90;;;;;;5122456;28;20173;-81
2021/10/31 05:30:45;;;;;;;3.83;3.37;;;6.30;99.90;;;;;;5121496;28;20184;-81
2021/10/31 05:33:10;;;;;;;3.63;3.10;;;6.20;99.90;;;;;;5122047;28;20576;-81
2021/10/31 05:35:36;;;;;;;4.03;3.30;;;6.20;99.90;;;;;;5121606;28;20180;-81
2021/10/31 05:38:02;;;;;;;4.83;3.40;;;6.20;99.90;;;;;;5120643;28;20180;-81
2021/10/31 05:40:29;;;;;;;5.87;3.20;;;6.10;99.90;;;;;;5121913;28;20171;-81
2021/10/31 05:42:55;;;;;;;4.47;3.70;;;6.10;99.90;;;;;;5121461;28;20631;-81
2021/10/31 05:45:21;;;;;;;4.57;3.33;;;6.10;99.90;;;;;;5120847;28;20237;-81
2021/10/31 05:47:47;;;;;;;4.80;3.50;;;6.10;99.90;;;;;;5120809;28;20183;-81
2021/10/31 05:50:15;;;;;;;5.23;3.47;;;6.10;99.90;;;;;;5122472;28;20208;-81
2021/10/31 05:52:42;;;;;;;3.20;2.90;;;6.10;99.90;;;;;;5122213;28;20204;-81
2021/10/31 05:55:10;;;;;;;4.10;3.40;;;6.00;99.90;;;;;;5122472;28;20183;-81
2021/10/31 05:57:36;;;;;;;4.87;3.70;;;6.00;99.90;;;;;;5122525;28;20258;-82
2021/10/31 06:00:06;;;;;;;6.40;3.63;;;5.90;99.90;;;;;;5120443;28;20176;-81
2021/10/31 06:02:32;;;;;;;3.93;3.33;;;5.90;99.90;;;;;;5122091;28;20203;-81
2021/10/31 06:04:59;;;;;;;8.40;4.30;;;5.90;99.90;;;;;;5127198;28;20183;-81
2021/10/31 06:07:26;;;;;;;10.33;4.83;;;5.90;99.90;;;;;;5134574;28;20582;-80
2021/10/31 06:09:54;;;;;;;8.57;5.97;;;5.90;99.90;;;;;;5130895;28;20418;-81
2021/10/31 06:12:19;;;;;;;9.77;6.33;;;5.90;99.90;;;;;;5134685;28;20215;-81
2021/10/31 06:14:46;;;;;;;8.03;6.13;;;5.80;99.90;;;;;;5126074;28;20217;-81
2021/10/31 06:17:11;;;;;;;8.40;5.57;;;5.80;99.90;;;;;;5120860;28;20168;-81
2021/10/31 06:19:37;;;;;;;7.20;5.10;;;5.80;99.90;;;;;;5120524;28;20537;-81
2021/10/31 06:22:04;;;;;;;8.70;6.20;;;5.70;99.90;;;;;;5121216;28;20195;-81
2021/10/31 06:24:29;;;;;;;7.53;5.63;;;5.70;99.90;;;;;;5118753;28;20232;-81
2021/10/31 06:26:55;;;;;;;9.23;5.57;;;5.70;99.90;;;;;;5120314;28;20176;-81
2021/10/31 06:29:21;;;;;;;6.17;4.70;;;5.70;99.90;;;;;;5120679;28;20172;-81
2021/10/31 06:31:47;;;;;;;6.77;4.87;;;5.70;99.90;;;;;;5119723;28;20210;-81
2021/10/31 06:34:12;;;;;;;7.37;5.23;;;5.70;99.90;;;;;;5120119;28;20175;-81
2021/10/31 06:36:38;;;;;;;5.13;4.63;;;5.70;99.90;;;;;;5120484;28;20189;-81
2021/10/31 06:39:04;;;;;;;6.13;4.80;;;5.70;99.90;;;;;;5119191;28;20175;-81
2021/10/31 06:41:31;;;;;;;7.00;4.90;;;5.80;99.90;;;;;;5118055;28;20196;-81
2021/10/31 06:43:56;;;;;;;5.50;4.70;;;5.80;99.90;;;;;;5118246;28;20641;-81
2021/10/31 06:46:22;;;;;;;7.00;5.33;;;5.80;99.90;;;;;;5119670;28;20204;-81
2021/10/31 06:48:48;;;;;;;5.17;4.17;;;5.80;99.90;;;;;;5120369;28;20172;-81
2021/10/31 06:51:15;;;;;;;7.00;5.23;;;5.80;99.90;;;;;;5118331;28;20208;-81
2021/10/31 06:53:40;;;;;;;5.47;4.10;;;5.80;99.90;;;;;;5119505;28;20180;-82
2021/10/31 06:56:06;;;;;;;4.73;3.83;;;5.90;99.90;;;;;;5120269;28;20175;-81
2021/10/31 06:58:32;;;;;;;5.87;4.07;;;5.90;99.90;;;;;;5118957;28;20172;-81
2021/10/31 07:00:57;;;;;;;4.67;3.43;;;6.00;99.90;;;;;;5121298;28;20198;-80
2021/10/31 07:03:23;;;;;;;3.93;3.47;;;6.00;99.90;;;;;;5119785;28;20177;-81
2021/10/31 07:05:49;;;;;;;5.47;4.40;;;6.00;99.90;;;;;;5119179;28;20172;-81
2021/10/31 07:08:14;;;;;;;7.77;5.30;;;6.10;99.90;;;;;;5120006;28;20309;-81
2021/10/31 07:10:40;;;;;;;5.97;4.37;;;6.10;99.90;;;;;;5120313;28;20168;-81
2021/10/31 07:13:05;;;;;;;6.20;4.63;;;6.20;99.90;;;;;;5118749;28;20195;-81
2021/10/31 07:15:31;;;;;;;7.50;4.90;;;6.20;99.90;;;;;;5119088;28;20630;-81
2021/10/31 07:17:57;;;;;;;6.30;4.40;;;6.30;99.90;;;;;;5120755;28;20199;-81
2021/10/31 07:20:24;;;;;;;6.90;5.20;;;6.40;99.90;;;;;;5120389;28;20220;-81
2021/10/31 07:22:50;;;;;;;5.87;4.83;;;6.50;99.90;;;;;;5123083;28;20223;-81
2021/10/31 07:25:17;;;;;;;8.10;5.57;;;6.60;99.90;;;;;;5125219;28;20637;-81
2021/10/31 07:27:43;;;;;;;8.20;4.77;;;6.80;99.90;;;;;;5124015;28;20295;-81
2021/10/31 07:30:09;;;;;;;5.30;3.90;;;6.90;99.90;;;;;;5127145;28;20183;-81
2021/10/31 07:32:35;;;;;;;4.60;3.73;;;7.10;99.90;;;;;;5129085;28;20765;-81
2021/10/31 07:35:01;;;;;;;5.83;3.40;;;7.20;99.90;;;;;;5122231;28;20192;-82
2021/10/31 07:37:30;;;;;;;5.07;3.20;;;7.40;99.90;;;;;;5123872;28;20631;-81
2021/10/31 07:39:57;;;;;;;6.17;3.47;;;7.60;99.90;;;;;;5123942;28;20251;-81
2021/10/31 07:42:28;;;;;;;8.13;3.17;;;7.90;99.90;;;;;;5123824;28;20209;-82
2021/10/31 07:44:55;;;;;;;3.60;3.10;;;8.00;99.90;;;;;;5122660;28;20193;-81
2021/10/31 07:47:20;;;;;;;3.70;3.03;;;8.30;99.90;;;;;;5123555;28;20181;-81
2021/10/31 07:49:46;;;;;;;3.80;2.83;;;8.60;99.90;;;;;;5125254;28;20182;-81
2021/10/31 07:52:11;;;;;;;3.10;2.80;;;9.10;99.90;;;;;;5124709;28;20196;-82
2021/10/31 07:54:37;;;;;;;6.07;3.13;;;9.70;99.90;;;;;;5132770;28;20170;-81
2021/10/31 07:57:04;;;;;;;3.40;2.70;;;10.60;99.90;;;;;;5136976;28;20177;-81
2021/10/31 07:59:30;;;;;;;3.50;2.80;;;11.40;99.90;;;;;;5133586;28;20172;-79
2021/10/31 08:01:56;;;;;;;2.63;2.40;;;12.00;99.90;;;;;;5133019;28;20210;-78
2021/10/31 08:04:23;;;;;;;3.10;2.53;;;12.40;99.90;;;;;;5133456;28;20224;-79
2021/10/31 08:06:49;;;;;;;2.50;2.30;;;12.90;99.90;;;;;;5123706;28;20240;-81
2021/10/31 08:09:14;;;;;;;2.73;2.00;;;13.20;99.90;;;;;;5125789;28;20179;-81
2021/10/31 08:11:43;;;;;;;2.90;1.97;;;13.70;99.90;;;;;;5122838;28;20199;-81
2021/10/31 08:14:10;;;;;;;4.27;3.00;;;14.00;99.90;;;;;;5122851;28;20176;-81
2021/10/31 08:16:37;;;;;;;5.13;3.77;;;14.30;99.90;;;;;;5125885;28;20205;-82
2021/10/31 08:19:04;;;;;;;6.47;4.50;;;14.70;99.90;;;;;;5126657;28;20666;-81
2021/10/31 08:21:30;;;;;;;7.37;5.60;;;15.00;99.90;;;;;;5124350;28;20265;-81
2021/10/31 08:23:56;;;;;;;4.27;3.73;;;15.10;99.90;;;;;;5125246;28;20164;-81
2021/10/31 08:26:22;;;;;;;5.80;3.23;;;15.20;99.90;;;;;;5125370;28;20165;-81
2021/10/31 08:28:49;;;;;;;4.23;2.60;;;15.10;99.90;;;;;;5123943;28;20199;-81
2021/10/31 08:31:23;;;;;;;3.13;2.67;;;14.90;99.90;;;;;;5126051;28;20196;-81
2021/10/31 08:33:55;;;;;;;3.47;3.17;;;15.10;99.90;;;;;;5125748;28;20192;-81
2021/10/31 08:36:21;;;;;;;3.07;2.40;;;15.40;99.90;;;;;;5126383;28;20157;-81
2021/10/31 08:38:47;;;;;;;2.53;2.20;;;15.30;99.90;;;;;;5125822;28;20171;-82
2021/10/31 08:41:13;;;;;;;2.93;2.27;;;15.70;99.90;;;;;;5123310;28;20190;-82
2021/10/31 08:43:42;;;;;;;3.17;2.50;;;15.90;99.90;;;;;;5123905;28;20640;-82
2021/10/31 08:46:10;;;;;;;2.67;2.47;;;16.40;99.90;;;;;;5124726;28;20184;-80
2021/10/31 08:48:38;;;;;;;2.60;2.10;;;16.60;99.90;;;;;;5125848;28;20202;-82
2021/10/31 08:51:03;;;;;;;2.77;2.50;;;16.70;99.90;;;;;;5124441;28;20190;-82
2021/10/31 08:53:29;;;;;;;3.67;2.50;;;17.10;99.90;;;;;;5125288;28;20172;-80
2021/10/31 08:55:59;;;;;;;2.37;2.17;;;17.60;99.90;;;;;;5123483;28;20269;-80
2021/10/31 08:58:26;;;;;;;2.67;2.03;;;18.00;99.90;;;;;;5124999;28;20522;-82
2021/10/31 09:00:51;;;;;;;5.77;2.73;;;18.50;99.90;;;;;;5124684;28;20217;-82
2021/10/31 09:03:18;;;;;;;2.23;2.03;;;18.90;99.90;;;;;;5126160;28;20196;-80
2021/10/31 09:05:44;;;;;;;2.27;1.60;;;19.40;99.90;;;;;;5123340;28;20236;-80
2021/10/31 09:08:10;;;;;;;2.20;1.50;;;19.60;99.90;;;;;;5125140;28;20178;-80
2021/10/31 09:10:36;;;;;;;5.07;1.77;;;19.70;99.90;;;;;;5123257;28;20190;-80
2021/10/31 09:13:02;;;;;;;3.30;2.00;;;19.60;99.90;;;;;;5123834;28;20233;-80
2021/10/31 09:15:29;;;;;;;1.80;1.70;;;19.80;99.90;;;;;;5123964;28;20569;-80
2021/10/31 09:17:59;;;;;;;2.30;2.00;;;19.80;99.90;;;;;;5123030;28;20168;-80
2021/10/31 09:20:26;;;;;;;2.13;1.90;;;19.80;99.70;;;;;;5123710;28;20168;-80
2021/10/31 09:22:57;;;;;;;3.27;2.23;;;19.80;98.80;;;;;;5125023;28;20198;-80
2021/10/31 09:25:24;;;;;;;2.83;2.33;;;20.00;99.90;;;;;;5122321;28;20235;-80
2021/10/31 09:27:51;;;;;;;1.87;1.73;;;20.00;98.10;;;;;;5124626;28;20172;-80
2021/10/31 09:30:23;;;;;;;1.70;1.53;;;20.10;98.80;;;;;;5123978;28;20651;-80
2021/10/31 09:32:49;;;;;;;2.10;1.80;;;20.60;96.90;;;;;;5124718;28;20206;-80
2021/10/31 09:35:23;;;;;;;1.80;1.70;;;21.00;95.70;;;;;;5124437;28;20173;-80
2021/10/31 09:37:53;;;;;;;3.57;1.33;;;21.40;97.80;;;;;;5123053;28;20176;-80
2021/10/31 09:40:20;;;;;;;2.03;1.60;;;21.70;93.00;;;;;;5123307;28;20261;-80
2021/10/31 09:42:46;;;;;;;1.73;1.37;;;22.00;92.80;;;;;;5122625;28;20202;-80
2021/10/31 09:45:12;;;;;;;1.73;1.23;;;22.00;92.30;;;;;;5122857;28;20629;-80
2021/10/31 09:47:42;;;;;;;2.20;1.20;;;21.60;92.00;;;;;;5123379;28;20175;-80
2021/10/31 09:50:09;;;;;;;2.40;1.30;;;21.70;91.00;;;;;;5125195;28;20306;-80
2021/10/31 09:52:35;;;;;;;5.77;1.33;;;22.10;92.10;;;;;;5125084;28;20283;-81
2021/10/31 09:55:02;;;;;;;8.60;7.17;;;22.50;87.70;;;;;;5123682;28;20176;-80
2021/10/31 09:57:28;;;;;;;1.40;1.30;;;22.60;83.10;;;;;;5128202;28;20198;-80
2021/10/31 09:59:56;;;;;;;3.00;1.70;;;22.70;80.90;;;;;;5124828;28;20183;-80
2021/10/31 10:03:22;;;;;;;2.30;1.53;;;22.60;84.40;;;;;;5124441;28;20191;-80
2021/10/31 10:05:22;;;;;;;22.70;18.17;;;22.60;86.70;;;;;;5120415;28;20217;-80
2021/10/31 10:08:10;;;;;;;11.00;8.50;;;22.30;85.80;;;;;;5122970;28;20698;-80
2021/10/31 10:10:42;;;;;;;15.57;9.77;;;21.80;83.40;;;;;;5120844;28;20169;-80
2021/10/31 10:13:24;;;;;;;2.37;1.87;;;21.60;83.90;;;;;;5123828;28;20212;-80
2021/10/31 10:15:51;;;;;;;1.60;1.40;;;21.90;83.20;;;;;;5124530;28;20177;-80
2021/10/31 10:18:33;;;;;;;2.93;1.40;;;22.50;88.30;;;;;;5129484;28;20180;-79
2021/10/31 10:21:18;;;;;;;2.10;1.27;;;23.30;82.70;;;;;;5130589;28;20192;-79
2021/10/31 10:23:56;;;;;;;1.40;1.23;;;23.70;81.50;;;;;;5126976;28;20181;-80
2021/10/31 10:26:56;;;;;;;1.27;1.17;;;24.30;80.50;;;;;;5122779;28;20549;-80
2021/10/31 10:29:29;;;;;;;1.10;1.00;;;24.40;74.50;;;;;;5103326;28;20203;-80
2021/10/31 10:32:03;;;;;;;1.10;1.00;;;24.40;76.10;;;;;;5122612;28;20254;-80
2021/10/31 10:34:50;;;;;;;2.57;1.20;;;23.90;71.20;;;;;;5118578;28;20193;-77
2021/10/31 10:37:32;;;;;;;1.40;1.10;;;23.60;72.70;;;;;;5116700;28;20186;-79
2021/10/31 10:40:10;;;;;;;1.23;1.03;;;23.60;71.40;;;;;;5116706;28;20184;-78
2021/10/31 10:42:45;;;;;;;1.20;1.10;;;24.00;74.40;;;;;;5116099;28;20213;-79
2021/10/31 10:45:15;;;;;;;1.57;1.10;;;24.30;69.80;;;;;;5117856;28;20167;-80
2021/10/31 10:47:43;;;;;;;1.20;1.10;;;24.50;69.00;;;;;;5119891;28;20256;-80
2021/10/31 10:50:25;;;;;;;1.77;1.07;;;24.30;71.20;;;;;;5119670;28;20179;-80
2021/10/31 10:52:52;;;;;;;1.70;1.10;;;24.40;69.60;;;;;;5119440;28;20199;-82
2021/10/31 10:55:23;;;;;;;1.60;1.27;;;24.50;67.90;;;;;;5118019;28;20182;-81
2021/10/31 10:57:58;;;;;;;1.50;1.40;;;25.00;70.80;;;;;;5120971;28;20178;-81
2021/10/31 11:00:39;;;;;;;1.30;1.20;;;25.40;65.30;;;;;;5121447;28;20204;-81
2021/10/31 11:03:13;;;;;;;1.40;1.30;;;25.30;64.90;;;;;;5122506;28;20221;-80
2021/10/31 11:05:41;;;;;;;1.80;1.23;;;25.10;65.30;;;;;;5118955;28;20206;-81
2021/10/31 11:08:15;;;;;;;2.07;1.40;;;24.80;64.60;;;;;;5121038;28;20185;-81
2021/10/31 11:10:49;;;;;;;1.20;1.10;;;24.60;66.20;;;;;;5121696;28;20181;-80
2021/10/31 11:13:15;;;;;;;1.67;1.20;;;24.70;65.70;;;;;;5119798;28;20225;-80
2021/10/31 11:15:41;;;;;;;1.50;1.40;;;24.30;65.60;;;;;;5121686;28;20183;-81
2021/10/31 11:18:10;;;;;;;1.50;1.40;;;24.50;67.60;;;;;;5121069;28;20184;-81
2021/10/31 11:20:43;;;;;;;1.37;1.27;;;24.50;66.90;;;;;;5120772;28;20180;-79
2021/10/31 11:23:11;;;;;;;1.27;1.17;;;24.90;63.20;;;;;;5122640;28;20279;-80
2021/10/31 11:25:41;;;;;;;1.60;1.07;;;25.10;62.50;;;;;;5120784;28;20209;-80
2021/10/31 11:28:13;;;;;;;1.67;1.10;;;25.40;62.40;;;;;;5121950;28;20172;-80
2021/10/31 11:30:41;;;;;;;2.47;1.20;;;25.50;62.90;;;;;;5122131;28;20155;-81
2021/10/31 11:33:08;;;;;;;2.23;1.40;;;25.80;65.00;;;;;;5121080;28;20282;-80
2021/10/31 11:35:34;;;;;;;2.03;1.37;;;26.50;62.70;;;;;;5122896;28;20235;-80
2021/10/31 11:38:10;;;;;;;1.90;1.30;;;26.50;59.80;;;;;;5123448;28;20180;-81
2021/10/31 11:40:40;;;;;;;1.83;1.27;;;26.60;61.50;;;;;;5122103;28;20209;-81
2021/10/31 11:43:22;;;;;;;1.73;1.20;;;26.50;58.90;;;;;;5122922;28;20231;-80
2021/10/31 11:45:55;;;;;;;3.50;1.50;;;26.00;59.90;;;;;;5122899;28;20159;-80
2021/10/31 11:48:25;;;;;;;2.17;1.40;;;25.80;59.70;;;;;;5121877;28;20179;-81
2021/10/31 11:51:03;;;;;;;1.70;1.30;;;25.50;60.60;;;;;;5120919;28;20179;-80
2021/10/31 11:53:33;;;;;;;1.30;1.20;;;25.50;59.80;;;;;;5121525;28;20624;-80
2021/10/31 11:56:07;;;;;;;1.97;1.50;;;25.30;60.70;;;;;;5121570;28;20174;-80
2021/10/31 11:58:40;;;;;;;1.20;1.10;;;25.80;61.00;;;;;;5121185;28;20522;-80
2021/10/31 12:01:23;;;;;;;2.07;1.50;;;26.20;57.60;;;;;;5120137;28;20177;-80
2021/10/31 12:03:55;;;;;;;1.40;1.30;;;25.90;58.30;;;;;;5120396;28;20174;-80
2021/10/31 12:06:25;;;;;;;1.67;1.37;;;26.30;58.80;;;;;;5121931;28;20171;-80
2021/10/31 12:09:18;;;;;;;2.10;1.40;;;26.90;59.70;;;;;;5119640;28;20586;-80
2021/10/31 12:11:43;;;;;;;1.83;1.60;;;27.50;56.80;;;;;;5120632;28;20669;-80
2021/10/31 12:14:12;;;;;;;1.30;1.10;;;28.00;56.40;;;;;;5121990;28;20182;-80
2021/10/31 12:16:56;;;;;;;1.43;1.33;;;28.40;56.40;;;;;;5122926;28;20530;-80
2021/10/31 12:19:24;;;;;;;1.83;1.20;;;28.50;53.90;;;;;;5123653;28;20180;-80
2021/10/31 12:22:14;;;;;;;1.57;1.33;;;28.50;53.80;;;;;;5124154;28;20757;-79
2021/10/31 12:24:43;;;;;;;1.53;1.20;;;28.50;54.00;;;;;;5121491;28;20164;-83
2021/10/31 12:27:14;;;;;;;1.40;1.10;;;28.60;53.60;;;;;;5122957;28;20249;-77
2021/10/31 12:29:44;;;;;;;1.93;1.23;;;28.60;52.70;;;;;;5122916;28;20179;-77
2021/10/31 12:32:17;;;;;;;2.00;1.13;;;28.80;53.40;;;;;;5124205;28;20291;-80
2021/10/31 12:34:53;;;;;;;2.57;1.20;;;28.60;52.90;;;;;;5119952;28;20263;-78
2021/10/31 12:37:22;;;;;;;1.93;1.30;;;28.80;51.40;;;;;;5119052;28;20260;-81
2021/10/31 12:39:48;;;;;;;1.40;1.30;;;29.00;51.50;;;;;;5122911;28;20638;-78
2021/10/31 12:42:46;;;;;;;1.37;1.20;;;28.90;51.70;;;;;;5121304;28;20252;-80
2021/10/31 12:45:16;;;;;;;1.40;1.30;;;29.20;51.80;;;;;;5119680;28;20179;-80
2021/10/31 12:47:53;;;;;;;2.63;1.20;;;29.00;51.40;;;;;;5120039;28;20256;-80
2021/10/31 12:50:23;;;;;;;1.13;1.03;;;29.10;50.40;;;;;;5118260;28;20544;-80
2021/10/31 12:53:01;;;;;;;1.50;1.40;;;29.50;50.80;;;;;;5119748;28;20196;-80
2021/10/31 12:55:28;;;;;;;4.80;1.30;;;30.00;50.20;;;;;;5119400;28;20188;-80
2021/10/31 12:58:06;;;;;;;2.70;1.30;;;30.30;49.60;;;;;;5118150;28;20185;-79
2021/10/31 13:00:35;;;;;;;3.30;1.60;;;30.50;49.80;;;;;;5120068;28;20642;-80
2021/10/31 13:03:03;;;;;;;1.27;1.10;;;30.30;49.00;;;;;;5119364;28;20236;-81
2021/10/31 13:05:38;;;;;;;3.20;1.40;;;29.90;49.10;;;;;;5119048;28;20176;-81